sensor_id;sensor_type;location;lat;lon;timestamp;P1;durP1;ratioP1;P2;durP2;ratioP2
23099;SDS011;53791;50.696;4.396;2023-05-10T00:00:51;6.62;;;6.12;;
23099;SDS011;53791;50.696;4.396;2023-05-10T00:03:20;7.58;;;6.87;;
23099;SDS011;53791;50.696;4.396;2023-05-10T00:05:49;9.50;;;6.80;;
23099;SDS011;53791;50.696;4.396;2023-05-10T00:08:17;6.58;;;6.08;;
23099;SDS011;53791;50.696;4.396;2023-05-10T00:10:48;6.80;;;6.30;;
23099;SDS011;53791;50.696;4.396;2023-05-10T00:13:19;6.97;;;6.47;;
23099;SDS011;53791;50.696;4.396;2023-05-10T00:16:04;8.00;;;7.25;;
23099;SDS011;53791;50.696;4.396;2023-05-10T00:18:28;7.22;;;6.70;;
23099;SDS011;53791;50.696;4.396;2023-05-10T00:20:58;6.75;;;6.25;;
23099;SDS011;53791;50.696;4.396;2023-05-10T00:23:34;7.22;;;6.62;;
23099;SDS011;53791;50.696;4.396;2023-05-10T00:26:10;7.53;;;6.83;;
23099;SDS011;53791;50.696;4.396;2023-05-10T00:28:41;7.05;;;6.53;;
23099;SDS011;53791;50.696;4.396;2023-05-10T00:31:13;8.55;;;6.80;;
23099;SDS011;53791;50.696;4.396;2023-05-10T00:33:47;7.10;;;6.58;;
23099;SDS011;53791;50.696;4.396;2023-05-10T00:36:20;7.30;;;6.70;;
23099;SDS011;53791;50.696;4.396;2023-05-10T00:39:01;7.95;;;7.25;;
23099;SDS011;53791;50.696;4.396;2023-05-10T00:41:29;7.22;;;6.65;;
23099;SDS011;53791;50.696;4.396;2023-05-10T00:44:08;7.78;;;7.17;;
23099;SDS011;53791;50.696;4.396;2023-05-10T00:46:41;8.00;;;7.33;;
23099;SDS011;53791;50.696;4.396;2023-05-10T00:49:14;7.40;;;6.80;;
23099;SDS011;53791;50.696;4.396;2023-05-10T00:51:44;14.65;;;7.72;;
23099;SDS011;53791;50.696;4.396;2023-05-10T00:54:18;7.47;;;6.87;;
23099;SDS011;53791;50.696;4.396;2023-05-10T00:56:54;7.03;;;6.53;;
23099;SDS011;53791;50.696;4.396;2023-05-10T01:02:00;7.87;;;7.17;;
23099;SDS011;53791;50.696;4.396;2023-05-10T01:04:31;7.58;;;7.08;;
23099;SDS011;53791;50.696;4.396;2023-05-10T01:07:09;7.35;;;6.75;;
23099;SDS011;53791;50.696;4.396;2023-05-10T01:09:45;7.35;;;6.80;;
23099;SDS011;53791;50.696;4.396;2023-05-10T01:12:14;8.15;;;7.45;;
23099;SDS011;53791;50.696;4.396;2023-05-10T01:14:45;7.05;;;6.55;;
23099;SDS011;53791;50.696;4.396;2023-05-10T01:17:16;8.18;;;7.55;;
23099;SDS011;53791;50.696;4.396;2023-05-10T01:19:50;7.50;;;7.00;;
23099;SDS011;53791;50.696;4.396;2023-05-10T01:22:50;7.83;;;7.22;;
23099;SDS011;53791;50.696;4.396;2023-05-10T01:25:44;8.33;;;7.53;;
23099;SDS011;53791;50.696;4.396;2023-05-10T01:30:50;8.78;;;7.28;;
23099;SDS011;53791;50.696;4.396;2023-05-10T01:33:24;7.62;;;7.03;;
23099;SDS011;53791;50.696;4.396;2023-05-10T01:39:06;8.03;;;7.42;;
23099;SDS011;53791;50.696;4.396;2023-05-10T01:41:45;8.68;;;7.87;;
23099;SDS011;53791;50.696;4.396;2023-05-10T01:44:18;8.65;;;7.72;;
23099;SDS011;53791;50.696;4.396;2023-05-10T01:47:05;9.03;;;8.33;;
23099;SDS011;53791;50.696;4.396;2023-05-10T01:49:37;9.10;;;8.20;;
23099;SDS011;53791;50.696;4.396;2023-05-10T01:52:13;10.00;;;7.40;;
23099;SDS011;53791;50.696;4.396;2023-05-10T01:54:47;8.48;;;7.83;;
23099;SDS011;53791;50.696;4.396;2023-05-10T01:57:18;7.65;;;7.10;;
23099;SDS011;53791;50.696;4.396;2023-05-10T01:59:52;7.62;;;7.12;;
23099;SDS011;53791;50.696;4.396;2023-05-10T02:02:24;8.03;;;7.45;;
23099;SDS011;53791;50.696;4.396;2023-05-10T02:04:59;8.00;;;7.40;;
23099;SDS011;53791;50.696;4.396;2023-05-10T02:07:34;8.38;;;7.75;;
23099;SDS011;53791;50.696;4.396;2023-05-10T02:12:35;8.20;;;7.60;;
23099;SDS011;53791;50.696;4.396;2023-05-10T02:15:11;8.43;;;7.75;;
23099;SDS011;53791;50.696;4.396;2023-05-10T02:17:55;7.87;;;7.25;;
23099;SDS011;53791;50.696;4.396;2023-05-10T02:20:32;9.15;;;8.30;;
23099;SDS011;53791;50.696;4.396;2023-05-10T02:23:15;8.75;;;8.08;;
23099;SDS011;53791;50.696;4.396;2023-05-10T02:25:56;8.68;;;7.95;;
23099;SDS011;53791;50.696;4.396;2023-05-10T02:28:19;7.92;;;7.33;;
23099;SDS011;53791;50.696;4.396;2023-05-10T02:30:53;9.45;;;8.58;;
23099;SDS011;53791;50.696;4.396;2023-05-10T02:33:27;8.58;;;7.75;;
23099;SDS011;53791;50.696;4.396;2023-05-10T02:36:08;8.20;;;7.60;;
23099;SDS011;53791;50.696;4.396;2023-05-10T02:38:37;8.28;;;7.53;;
23099;SDS011;53791;50.696;4.396;2023-05-10T02:41:12;9.03;;;8.38;;
23099;SDS011;53791;50.696;4.396;2023-05-10T02:43:43;8.80;;;8.00;;
23099;SDS011;53791;50.696;4.396;2023-05-10T02:46:15;11.03;;;8.40;;
23099;SDS011;53791;50.696;4.396;2023-05-10T02:48:49;7.95;;;7.40;;
23099;SDS011;53791;50.696;4.396;2023-05-10T02:51:28;9.20;;;8.50;;
23099;SDS011;53791;50.696;4.396;2023-05-10T02:54:00;9.45;;;8.75;;
23099;SDS011;53791;50.696;4.396;2023-05-10T02:56:40;9.00;;;8.28;;
23099;SDS011;53791;50.696;4.396;2023-05-10T02:59:04;8.25;;;7.65;;
23099;SDS011;53791;50.696;4.396;2023-05-10T03:01:37;9.10;;;8.40;;
23099;SDS011;53791;50.696;4.396;2023-05-10T03:04:08;8.03;;;7.42;;
23099;SDS011;53791;50.696;4.396;2023-05-10T03:06:36;9.15;;;8.45;;
23099;SDS011;53791;50.696;4.396;2023-05-10T03:09:08;9.15;;;8.35;;
23099;SDS011;53791;50.696;4.396;2023-05-10T03:11:55;9.35;;;8.55;;
23099;SDS011;53791;50.696;4.396;2023-05-10T03:17:15;8.48;;;7.78;;
23099;SDS011;53791;50.696;4.396;2023-05-10T03:20:03;9.28;;;8.53;;
23099;SDS011;53791;50.696;4.396;2023-05-10T03:22:37;9.00;;;8.30;;
23099;SDS011;53791;50.696;4.396;2023-05-10T03:25:21;9.50;;;8.80;;
23099;SDS011;53791;50.696;4.396;2023-05-10T03:27:52;9.20;;;8.50;;
23099;SDS011;53791;50.696;4.396;2023-05-10T03:30:26;9.80;;;9.00;;
23099;SDS011;53791;50.696;4.396;2023-05-10T03:32:57;10.40;;;9.40;;
23099;SDS011;53791;50.696;4.396;2023-05-10T03:35:28;9.68;;;8.68;;
23099;SDS011;53791;50.696;4.396;2023-05-10T03:38:01;9.45;;;8.75;;
23099;SDS011;53791;50.696;4.396;2023-05-10T03:40:30;9.70;;;8.90;;
23099;SDS011;53791;50.696;4.396;2023-05-10T03:43:02;9.85;;;9.05;;
23099;SDS011;53791;50.696;4.396;2023-05-10T03:45:35;9.50;;;8.80;;
23099;SDS011;53791;50.696;4.396;2023-05-10T03:48:08;9.90;;;9.10;;
23099;SDS011;53791;50.696;4.396;2023-05-10T03:50:44;9.08;;;8.38;;
23099;SDS011;53791;50.696;4.396;2023-05-10T03:53:14;9.00;;;8.30;;
23099;SDS011;53791;50.696;4.396;2023-05-10T03:55:46;8.83;;;8.15;;
23099;SDS011;53791;50.696;4.396;2023-05-10T03:58:18;9.78;;;8.25;;
23099;SDS011;53791;50.696;4.396;2023-05-10T04:00:53;9.95;;;8.48;;
23099;SDS011;53791;50.696;4.396;2023-05-10T04:03:21;24.70;;;9.93;;
23099;SDS011;53791;50.696;4.396;2023-05-10T04:05:58;10.60;;;9.65;;
23099;SDS011;53791;50.696;4.396;2023-05-10T04:08:28;11.60;;;10.38;;
23099;SDS011;53791;50.696;4.396;2023-05-10T04:11:07;9.90;;;9.18;;
23099;SDS011;53791;50.696;4.396;2023-05-10T04:13:39;9.33;;;8.63;;
23099;SDS011;53791;50.696;4.396;2023-05-10T04:16:06;9.80;;;8.90;;
23099;SDS011;53791;50.696;4.396;2023-05-10T04:18:38;9.40;;;8.70;;
23099;SDS011;53791;50.696;4.396;2023-05-10T04:21:12;8.85;;;8.25;;
23099;SDS011;53791;50.696;4.396;2023-05-10T04:23:44;8.98;;;8.28;;
23099;SDS011;53791;50.696;4.396;2023-05-10T04:26:22;8.65;;;8.05;;
23099;SDS011;53791;50.696;4.396;2023-05-10T04:28:54;8.85;;;8.03;;
23099;SDS011;53791;50.696;4.396;2023-05-10T04:31:21;9.43;;;8.60;;
23099;SDS011;53791;50.696;4.396;2023-05-10T04:33:50;8.70;;;7.67;;
23099;SDS011;53791;50.696;4.396;2023-05-10T04:36:17;7.33;;;6.83;;
23099;SDS011;53791;50.696;4.396;2023-05-10T04:38:48;7.53;;;6.95;;
23099;SDS011;53791;50.696;4.396;2023-05-10T04:41:20;7.85;;;7.10;;
23099;SDS011;53791;50.696;4.396;2023-05-10T04:43:56;7.90;;;7.30;;
23099;SDS011;53791;50.696;4.396;2023-05-10T04:46:24;7.55;;;7.05;;
23099;SDS011;53791;50.696;4.396;2023-05-10T04:48:51;7.08;;;6.58;;
23099;SDS011;53791;50.696;4.396;2023-05-10T04:51:22;7.42;;;6.83;;
23099;SDS011;53791;50.696;4.396;2023-05-10T04:53:58;8.53;;;7.87;;
23099;SDS011;53791;50.696;4.396;2023-05-10T04:56:26;7.70;;;7.20;;
23099;SDS011;53791;50.696;4.396;2023-05-10T04:58:59;8.18;;;7.58;;
23099;SDS011;53791;50.696;4.396;2023-05-10T05:01:31;8.53;;;7.78;;
23099;SDS011;53791;50.696;4.396;2023-05-10T05:04:02;6.55;;;6.15;;
23099;SDS011;53791;50.696;4.396;2023-05-10T05:06:33;7.50;;;6.90;;
23099;SDS011;53791;50.696;4.396;2023-05-10T05:09:06;7.20;;;6.70;;
23099;SDS011;53791;50.696;4.396;2023-05-10T05:11:35;7.28;;;6.78;;
23099;SDS011;53791;50.696;4.396;2023-05-10T05:14:06;7.47;;;6.92;;
23099;SDS011;53791;50.696;4.396;2023-05-10T05:16:33;8.55;;;7.85;;
23099;SDS011;53791;50.696;4.396;2023-05-10T05:19:01;8.43;;;7.72;;
23099;SDS011;53791;50.696;4.396;2023-05-10T05:21:30;7.72;;;7.15;;
23099;SDS011;53791;50.696;4.396;2023-05-10T05:23:59;7.45;;;6.92;;
23099;SDS011;53791;50.696;4.396;2023-05-10T05:26:27;7.55;;;7.05;;
23099;SDS011;53791;50.696;4.396;2023-05-10T05:28:54;7.78;;;7.17;;
23099;SDS011;53791;50.696;4.396;2023-05-10T05:31:22;8.23;;;7.47;;
23099;SDS011;53791;50.696;4.396;2023-05-10T05:33:52;6.83;;;6.33;;
23099;SDS011;53791;50.696;4.396;2023-05-10T05:36:20;7.12;;;6.62;;
23099;SDS011;53791;50.696;4.396;2023-05-10T05:38:49;7.00;;;6.50;;
23099;SDS011;53791;50.696;4.396;2023-05-10T05:41:19;6.90;;;6.40;;
23099;SDS011;53791;50.696;4.396;2023-05-10T05:46:27;6.75;;;6.30;;
23099;SDS011;53791;50.696;4.396;2023-05-10T05:48:59;7.00;;;6.50;;
23099;SDS011;53791;50.696;4.396;2023-05-10T05:51:36;7.17;;;6.67;;
23099;SDS011;53791;50.696;4.396;2023-05-10T05:54:05;7.50;;;6.15;;
23099;SDS011;53791;50.696;4.396;2023-05-10T05:59:06;7.65;;;6.53;;
23099;SDS011;53791;50.696;4.396;2023-05-10T06:01:37;6.70;;;6.20;;
23099;SDS011;53791;50.696;4.396;2023-05-10T06:04:16;6.70;;;6.20;;
23099;SDS011;53791;50.696;4.396;2023-05-10T06:06:38;6.60;;;6.20;;
23099;SDS011;53791;50.696;4.396;2023-05-10T06:09:13;7.70;;;7.10;;
23099;SDS011;53791;50.696;4.396;2023-05-10T06:11:45;6.70;;;6.20;;
23099;SDS011;53791;50.696;4.396;2023-05-10T06:14:17;7.28;;;6.78;;
23099;SDS011;53791;50.696;4.396;2023-05-10T06:16:49;7.60;;;7.00;;
23099;SDS011;53791;50.696;4.396;2023-05-10T06:19:18;8.08;;;7.47;;
23099;SDS011;53791;50.696;4.396;2023-05-10T06:21:55;6.72;;;6.30;;
23099;SDS011;53791;50.696;4.396;2023-05-10T06:24:20;6.90;;;6.40;;
23099;SDS011;53791;50.696;4.396;2023-05-10T06:26:49;7.08;;;6.58;;
23099;SDS011;53791;50.696;4.396;2023-05-10T06:31:52;6.90;;;6.40;;
23099;SDS011;53791;50.696;4.396;2023-05-10T06:34:24;6.20;;;5.80;;
23099;SDS011;53791;50.696;4.396;2023-05-10T06:36:55;6.45;;;5.97;;
23099;SDS011;53791;50.696;4.396;2023-05-10T06:39:25;6.80;;;6.30;;
23099;SDS011;53791;50.696;4.396;2023-05-10T06:41:56;6.60;;;6.20;;
23099;SDS011;53791;50.696;4.396;2023-05-10T06:44:29;6.83;;;6.33;;
23099;SDS011;53791;50.696;4.396;2023-05-10T06:46:58;6.72;;;6.22;;
23099;SDS011;53791;50.696;4.396;2023-05-10T06:49:26;6.87;;;6.37;;
23099;SDS011;53791;50.696;4.396;2023-05-10T06:51:53;6.70;;;6.20;;
23099;SDS011;53791;50.696;4.396;2023-05-10T06:54:24;6.50;;;6.08;;
23099;SDS011;53791;50.696;4.396;2023-05-10T06:56:52;6.12;;;5.72;;
23099;SDS011;53791;50.696;4.396;2023-05-10T06:59:21;6.75;;;6.25;;
23099;SDS011;53791;50.696;4.396;2023-05-10T07:01:48;6.90;;;6.40;;
23099;SDS011;53791;50.696;4.396;2023-05-10T07:04:16;6.30;;;5.90;;
23099;SDS011;53791;50.696;4.396;2023-05-10T07:06:50;7.00;;;6.30;;
23099;SDS011;53791;50.696;4.396;2023-05-10T07:09:16;6.83;;;6.33;;
23099;SDS011;53791;50.696;4.396;2023-05-10T07:11:46;7.95;;;6.97;;
23099;SDS011;53791;50.696;4.396;2023-05-10T07:14:21;6.75;;;6.25;;
23099;SDS011;53791;50.696;4.396;2023-05-10T07:16:42;7.83;;;7.08;;
23099;SDS011;53791;50.696;4.396;2023-05-10T07:19:10;6.65;;;6.20;;
23099;SDS011;53791;50.696;4.396;2023-05-10T07:26:39;7.08;;;6.58;;
23099;SDS011;53791;50.696;4.396;2023-05-10T07:29:07;7.28;;;6.78;;
23099;SDS011;53791;50.696;4.396;2023-05-10T07:31:35;7.17;;;6.58;;
23099;SDS011;53791;50.696;4.396;2023-05-10T07:34:03;7.10;;;6.60;;
23099;SDS011;53791;50.696;4.396;2023-05-10T07:36:31;7.20;;;6.60;;
23099;SDS011;53791;50.696;4.396;2023-05-10T07:39:00;7.00;;;6.50;;
23099;SDS011;53791;50.696;4.396;2023-05-10T07:41:31;6.25;;;5.85;;
23099;SDS011;53791;50.696;4.396;2023-05-10T07:44:00;7.33;;;6.80;;
23099;SDS011;53791;50.696;4.396;2023-05-10T07:46:28;6.65;;;6.20;;
23099;SDS011;53791;50.696;4.396;2023-05-10T07:48:57;6.80;;;6.30;;
23099;SDS011;53791;50.696;4.396;2023-05-10T07:51:26;6.80;;;6.30;;
23099;SDS011;53791;50.696;4.396;2023-05-10T07:53:54;6.80;;;6.30;;
23099;SDS011;53791;50.696;4.396;2023-05-10T07:56:30;7.10;;;6.60;;
23099;SDS011;53791;50.696;4.396;2023-05-10T07:59:00;6.92;;;6.42;;
23099;SDS011;53791;50.696;4.396;2023-05-10T08:01:33;6.90;;;6.40;;
23099;SDS011;53791;50.696;4.396;2023-05-10T08:04:03;6.60;;;6.15;;
23099;SDS011;53791;50.696;4.396;2023-05-10T08:06:36;7.62;;;6.72;;
23099;SDS011;53791;50.696;4.396;2023-05-10T08:09:05;6.80;;;6.30;;
23099;SDS011;53791;50.696;4.396;2023-05-10T08:11:34;6.70;;;6.20;;
23099;SDS011;53791;50.696;4.396;2023-05-10T08:14:09;6.87;;;6.37;;
23099;SDS011;53791;50.696;4.396;2023-05-10T08:16:38;6.67;;;6.17;;
23099;SDS011;53791;50.696;4.396;2023-05-10T08:19:16;6.33;;;5.92;;
23099;SDS011;53791;50.696;4.396;2023-05-10T08:21:52;6.35;;;5.95;;
23099;SDS011;53791;50.696;4.396;2023-05-10T08:24:25;6.30;;;5.90;;
23099;SDS011;53791;50.696;4.396;2023-05-10T08:26:51;6.10;;;5.70;;
23099;SDS011;53791;50.696;4.396;2023-05-10T08:29:20;6.10;;;5.70;;
23099;SDS011;53791;50.696;4.396;2023-05-10T08:31:47;6.30;;;5.90;;
23099;SDS011;53791;50.696;4.396;2023-05-10T08:34:17;6.55;;;6.10;;
23099;SDS011;53791;50.696;4.396;2023-05-10T08:36:45;6.08;;;5.67;;
23099;SDS011;53791;50.696;4.396;2023-05-10T08:39:15;6.25;;;5.85;;
23099;SDS011;53791;50.696;4.396;2023-05-10T08:41:45;6.28;;;5.87;;
23099;SDS011;53791;50.696;4.396;2023-05-10T08:44:15;6.30;;;5.90;;
23099;SDS011;53791;50.696;4.396;2023-05-10T08:49:19;6.30;;;5.80;;
23099;SDS011;53791;50.696;4.396;2023-05-10T08:51:49;5.90;;;5.50;;
23099;SDS011;53791;50.696;4.396;2023-05-10T08:54:25;5.80;;;5.40;;
23099;SDS011;53791;50.696;4.396;2023-05-10T08:56:56;5.80;;;5.40;;
23099;SDS011;53791;50.696;4.396;2023-05-10T08:59:26;5.67;;;5.28;;
23099;SDS011;53791;50.696;4.396;2023-05-10T09:01:53;5.80;;;5.40;;
23099;SDS011;53791;50.696;4.396;2023-05-10T09:04:24;5.90;;;5.50;;
23099;SDS011;53791;50.696;4.396;2023-05-10T09:06:54;5.87;;;5.47;;
23099;SDS011;53791;50.696;4.396;2023-05-10T09:09:24;6.00;;;5.60;;
23099;SDS011;53791;50.696;4.396;2023-05-10T09:11:53;5.70;;;5.30;;
23099;SDS011;53791;50.696;4.396;2023-05-10T09:14:27;6.00;;;5.60;;
23099;SDS011;53791;50.696;4.396;2023-05-10T09:16:55;5.90;;;5.50;;
23099;SDS011;53791;50.696;4.396;2023-05-10T09:19:33;6.20;;;5.80;;
23099;SDS011;53791;50.696;4.396;2023-05-10T09:22:02;6.03;;;5.62;;
23099;SDS011;53791;50.696;4.396;2023-05-10T09:24:32;6.40;;;6.00;;
23099;SDS011;53791;50.696;4.396;2023-05-10T09:27:10;6.00;;;5.60;;
23099;SDS011;53791;50.696;4.396;2023-05-10T09:29:44;5.90;;;5.47;;
23099;SDS011;53791;50.696;4.396;2023-05-10T09:32:14;5.90;;;5.50;;
23099;SDS011;53791;50.696;4.396;2023-05-10T09:34:46;5.90;;;5.50;;
23099;SDS011;53791;50.696;4.396;2023-05-10T09:37:28;6.03;;;5.62;;
23099;SDS011;53791;50.696;4.396;2023-05-10T09:39:53;5.95;;;5.55;;
23099;SDS011;53791;50.696;4.396;2023-05-10T09:42:25;6.10;;;5.70;;
23099;SDS011;53791;50.696;4.396;2023-05-10T09:44:59;5.90;;;5.50;;
23099;SDS011;53791;50.696;4.396;2023-05-10T09:47:36;5.90;;;5.50;;
23099;SDS011;53791;50.696;4.396;2023-05-10T09:50:03;6.20;;;5.80;;
23099;SDS011;53791;50.696;4.396;2023-05-10T09:52:48;6.53;;;6.03;;
23099;SDS011;53791;50.696;4.396;2023-05-10T09:55:19;6.10;;;5.70;;
23099;SDS011;53791;50.696;4.396;2023-05-10T09:57:58;6.78;;;6.20;;
23099;SDS011;53791;50.696;4.396;2023-05-10T10:00:29;6.25;;;5.85;;
23099;SDS011;53791;50.696;4.396;2023-05-10T10:03:02;6.53;;;6.03;;
23099;SDS011;53791;50.696;4.396;2023-05-10T10:05:32;6.40;;;5.90;;
23099;SDS011;53791;50.696;4.396;2023-05-10T10:08:06;6.08;;;5.67;;
23099;SDS011;53791;50.696;4.396;2023-05-10T10:10:34;5.97;;;5.58;;
23099;SDS011;53791;50.696;4.396;2023-05-10T10:13:05;6.00;;;5.60;;
23099;SDS011;53791;50.696;4.396;2023-05-10T10:15:38;5.90;;;5.50;;
23099;SDS011;53791;50.696;4.396;2023-05-10T10:18:10;6.17;;;5.70;;
23099;SDS011;53791;50.696;4.396;2023-05-10T10:20:47;7.40;;;5.85;;
23099;SDS011;53791;50.696;4.396;2023-05-10T10:23:19;5.80;;;5.40;;
23099;SDS011;53791;50.696;4.396;2023-05-10T10:25:44;5.80;;;5.40;;
23099;SDS011;53791;50.696;4.396;2023-05-10T10:28:24;12.25;;;5.47;;
23099;SDS011;53791;50.696;4.396;2023-05-10T10:30:54;6.28;;;5.78;;
23099;SDS011;53791;50.696;4.396;2023-05-10T10:36:24;6.70;;;6.03;;
23099;SDS011;53791;50.696;4.396;2023-05-10T10:41:33;5.70;;;5.30;;
23099;SDS011;53791;50.696;4.396;2023-05-10T10:50:02;5.92;;;5.53;;
23099;SDS011;53791;50.696;4.396;2023-05-10T10:52:22;5.90;;;5.50;;
23099;SDS011;53791;50.696;4.396;2023-05-10T10:55:00;5.42;;;5.03;;
23099;SDS011;53791;50.696;4.396;2023-05-10T10:57:42;5.45;;;5.05;;
23099;SDS011;53791;50.696;4.396;2023-05-10T11:00:35;5.70;;;5.30;;
23099;SDS011;53791;50.696;4.396;2023-05-10T11:03:05;5.90;;;5.50;;
23099;SDS011;53791;50.696;4.396;2023-05-10T11:05:37;5.75;;;5.35;;
23099;SDS011;53791;50.696;4.396;2023-05-10T11:08:27;5.83;;;5.42;;
23099;SDS011;53791;50.696;4.396;2023-05-10T11:11:02;6.80;;;6.20;;
23099;SDS011;53791;50.696;4.396;2023-05-10T11:13:44;6.25;;;5.85;;
23099;SDS011;53791;50.696;4.396;2023-05-10T11:16:21;6.17;;;5.78;;
23099;SDS011;53791;50.696;4.396;2023-05-10T11:21:34;19.85;;;6.15;;
23099;SDS011;53791;50.696;4.396;2023-05-10T11:24:09;6.25;;;5.78;;
23099;SDS011;53791;50.696;4.396;2023-05-10T11:26:36;5.70;;;5.30;;
23099;SDS011;53791;50.696;4.396;2023-05-10T11:29:08;6.20;;;5.75;;
23099;SDS011;53791;50.696;4.396;2023-05-10T11:31:44;5.53;;;5.12;;
23099;SDS011;53791;50.696;4.396;2023-05-10T11:34:26;5.40;;;5.00;;
23099;SDS011;53791;50.696;4.396;2023-05-10T11:36:53;5.30;;;4.90;;
23099;SDS011;53791;50.696;4.396;2023-05-10T11:39:25;5.40;;;4.97;;
23099;SDS011;53791;50.696;4.396;2023-05-10T11:41:57;5.60;;;5.20;;
23099;SDS011;53791;50.696;4.396;2023-05-10T11:48:09;5.83;;;5.42;;
23099;SDS011;53791;50.696;4.396;2023-05-10T11:50:41;5.58;;;5.17;;
23099;SDS011;53791;50.696;4.396;2023-05-10T12:00:18;5.10;;;4.70;;
23099;SDS011;53791;50.696;4.396;2023-05-10T12:02:43;5.70;;;5.22;;
23099;SDS011;53791;50.696;4.396;2023-05-10T12:05:26;5.40;;;5.00;;
23099;SDS011;53791;50.696;4.396;2023-05-10T12:10:28;5.40;;;5.00;;
23099;SDS011;53791;50.696;4.396;2023-05-10T12:12:57;5.00;;;4.50;;
23099;SDS011;53791;50.696;4.396;2023-05-10T12:15:28;5.72;;;5.30;;
23099;SDS011;53791;50.696;4.396;2023-05-10T12:17:59;5.08;;;4.67;;
23099;SDS011;53791;50.696;4.396;2023-05-10T12:20:29;4.65;;;4.30;;
23099;SDS011;53791;50.696;4.396;2023-05-10T12:23:03;4.65;;;4.25;;
23099;SDS011;53791;50.696;4.396;2023-05-10T12:25:38;4.65;;;4.33;;
23099;SDS011;53791;50.696;4.396;2023-05-10T12:28:08;4.83;;;4.42;;
23099;SDS011;53791;50.696;4.396;2023-05-10T12:30:40;4.70;;;4.30;;
23099;SDS011;53791;50.696;4.396;2023-05-10T12:33:10;4.72;;;4.37;;
23099;SDS011;53791;50.696;4.396;2023-05-10T12:35:46;4.35;;;4.05;;
23099;SDS011;53791;50.696;4.396;2023-05-10T12:38:31;4.65;;;4.35;;
23099;SDS011;53791;50.696;4.396;2023-05-10T12:41:08;4.70;;;4.40;;
23099;SDS011;53791;50.696;4.396;2023-05-10T12:43:34;4.78;;;4.40;;
23099;SDS011;53791;50.696;4.396;2023-05-10T12:46:13;4.28;;;3.90;;
23099;SDS011;53791;50.696;4.396;2023-05-10T12:48:39;4.85;;;4.45;;
23099;SDS011;53791;50.696;4.396;2023-05-10T12:51:09;5.20;;;4.70;;
23099;SDS011;53791;50.696;4.396;2023-05-10T12:53:42;4.58;;;4.28;;
23099;SDS011;53791;50.696;4.396;2023-05-10T12:56:15;4.72;;;4.30;;
23099;SDS011;53791;50.696;4.396;2023-05-10T12:58:46;4.42;;;4.03;;
23099;SDS011;53791;50.696;4.396;2023-05-10T13:01:20;3.90;;;3.60;;
23099;SDS011;53791;50.696;4.396;2023-05-10T13:03:48;4.35;;;4.00;;
23099;SDS011;53791;50.696;4.396;2023-05-10T13:06:15;4.17;;;3.87;;
23099;SDS011;53791;50.696;4.396;2023-05-10T13:08:42;4.53;;;4.12;;
23099;SDS011;53791;50.696;4.396;2023-05-10T13:11:14;4.10;;;3.80;;
23099;SDS011;53791;50.696;4.396;2023-05-10T13:13:45;4.10;;;3.70;;
23099;SDS011;53791;50.696;4.396;2023-05-10T13:16:20;4.08;;;3.77;;
23099;SDS011;53791;50.696;4.396;2023-05-10T13:18:53;5.37;;;3.83;;
23099;SDS011;53791;50.696;4.396;2023-05-10T13:21:22;3.80;;;3.50;;
23099;SDS011;53791;50.696;4.396;2023-05-10T13:23:50;4.35;;;3.95;;
23099;SDS011;53791;50.696;4.396;2023-05-10T13:26:24;4.40;;;3.35;;
23099;SDS011;53791;50.696;4.396;2023-05-10T13:28:54;3.75;;;3.33;;
23099;SDS011;53791;50.696;4.396;2023-05-10T13:34:01;3.60;;;3.30;;
23099;SDS011;53791;50.696;4.396;2023-05-10T13:36:27;3.40;;;3.10;;
23099;SDS011;53791;50.696;4.396;2023-05-10T13:38:54;3.35;;;3.05;;
23099;SDS011;53791;50.696;4.396;2023-05-10T13:41:40;3.55;;;3.25;;
23099;SDS011;53791;50.696;4.396;2023-05-10T13:43:57;3.75;;;3.27;;
23099;SDS011;53791;50.696;4.396;2023-05-10T13:46:29;3.72;;;3.42;;
23099;SDS011;53791;50.696;4.396;2023-05-10T13:49:11;3.60;;;3.30;;
23099;SDS011;53791;50.696;4.396;2023-05-10T13:51:51;3.40;;;3.10;;
23099;SDS011;53791;50.696;4.396;2023-05-10T13:54:17;4.15;;;3.15;;
23099;SDS011;53791;50.696;4.396;2023-05-10T13:56:49;3.42;;;2.80;;
23099;SDS011;53791;50.696;4.396;2023-05-10T13:59:21;3.40;;;3.10;;
23099;SDS011;53791;50.696;4.396;2023-05-10T14:02:03;3.37;;;3.08;;
23099;SDS011;53791;50.696;4.396;2023-05-10T14:04:33;6.33;;;3.30;;
23099;SDS011;53791;50.696;4.396;2023-05-10T14:07:06;5.35;;;2.77;;
23099;SDS011;53791;50.696;4.396;2023-05-10T14:09:52;2.80;;;2.60;;
23099;SDS011;53791;50.696;4.396;2023-05-10T14:12:25;2.90;;;2.60;;
23099;SDS011;53791;50.696;4.396;2023-05-10T14:15:00;3.30;;;3.00;;
23099;SDS011;53791;50.696;4.396;2023-05-10T14:17:34;4.90;;;3.33;;
23099;SDS011;53791;50.696;4.396;2023-05-10T14:20:11;3.05;;;2.75;;
23099;SDS011;53791;50.696;4.396;2023-05-10T14:22:47;3.25;;;2.92;;
23099;SDS011;53791;50.696;4.396;2023-05-10T14:28:09;2.87;;;2.62;;
23099;SDS011;53791;50.696;4.396;2023-05-10T14:33:22;3.47;;;2.92;;
23099;SDS011;53791;50.696;4.396;2023-05-10T14:35:49;3.47;;;3.17;;
23099;SDS011;53791;50.696;4.396;2023-05-10T14:38:33;2.95;;;2.65;;
23099;SDS011;53791;50.696;4.396;2023-05-10T14:41:21;4.25;;;3.22;;
23099;SDS011;53791;50.696;4.396;2023-05-10T14:43:46;5.70;;;4.08;;
23099;SDS011;53791;50.696;4.396;2023-05-10T14:49:14;3.17;;;2.87;;
23099;SDS011;53791;50.696;4.396;2023-05-10T14:51:50;3.95;;;3.58;;
23099;SDS011;53791;50.696;4.396;2023-05-10T14:54:25;4.05;;;3.65;;
23099;SDS011;53791;50.696;4.396;2023-05-10T14:57:09;4.62;;;4.15;;
23099;SDS011;53791;50.696;4.396;2023-05-10T14:59:35;4.60;;;4.20;;
23099;SDS011;53791;50.696;4.396;2023-05-10T15:02:05;18.50;;;4.37;;
23099;SDS011;53791;50.696;4.396;2023-05-10T15:04:42;5.55;;;5.05;;
23099;SDS011;53791;50.696;4.396;2023-05-10T15:07:14;4.35;;;3.95;;
23099;SDS011;53791;50.696;4.396;2023-05-10T15:09:42;4.60;;;4.20;;
23099;SDS011;53791;50.696;4.396;2023-05-10T15:12:18;8.30;;;4.17;;
23099;SDS011;53791;50.696;4.396;2023-05-10T15:14:53;4.28;;;3.87;;
23099;SDS011;53791;50.696;4.396;2023-05-10T15:17:29;4.67;;;4.28;;
23099;SDS011;53791;50.696;4.396;2023-05-10T15:19:50;4.28;;;3.90;;
23099;SDS011;53791;50.696;4.396;2023-05-10T15:22:25;4.83;;;4.37;;
23099;SDS011;53791;50.696;4.396;2023-05-10T15:24:54;4.87;;;4.47;;
23099;SDS011;53791;50.696;4.396;2023-05-10T15:27:21;5.03;;;4.53;;
23099;SDS011;53791;50.696;4.396;2023-05-10T15:29:52;4.92;;;4.40;;
23099;SDS011;53791;50.696;4.396;2023-05-10T15:32:25;4.50;;;4.10;;
23099;SDS011;53791;50.696;4.396;2023-05-10T15:37:28;10.23;;;5.37;;
23099;SDS011;53791;50.696;4.396;2023-05-10T15:39:53;4.62;;;4.22;;
23099;SDS011;53791;50.696;4.396;2023-05-10T15:42:28;7.50;;;4.65;;
23099;SDS011;53791;50.696;4.396;2023-05-10T15:44:54;4.72;;;4.33;;
23099;SDS011;53791;50.696;4.396;2023-05-10T15:47:30;6.05;;;4.95;;
23099;SDS011;53791;50.696;4.396;2023-05-10T15:49:57;5.03;;;4.53;;
23099;SDS011;53791;50.696;4.396;2023-05-10T15:52:39;4.75;;;4.30;;
23099;SDS011;53791;50.696;4.396;2023-05-10T15:55:03;4.47;;;4.08;;
23099;SDS011;53791;50.696;4.396;2023-05-10T15:57:34;5.28;;;4.08;;
23099;SDS011;53791;50.696;4.396;2023-05-10T16:00:03;4.78;;;4.33;;
23099;SDS011;53791;50.696;4.396;2023-05-10T16:02:38;4.95;;;4.55;;
23099;SDS011;53791;50.696;4.396;2023-05-10T16:05:07;9.23;;;5.17;;
23099;SDS011;53791;50.696;4.396;2023-05-10T16:07:37;4.62;;;4.22;;
23099;SDS011;53791;50.696;4.396;2023-05-10T16:12:38;4.60;;;4.20;;
23099;SDS011;53791;50.696;4.396;2023-05-10T16:15:09;4.95;;;4.47;;
23099;SDS011;53791;50.696;4.396;2023-05-10T16:17:38;5.35;;;4.90;;
23099;SDS011;53791;50.696;4.396;2023-05-10T16:20:16;5.33;;;4.83;;
23099;SDS011;53791;50.696;4.396;2023-05-10T16:22:42;5.58;;;5.12;;
23099;SDS011;53791;50.696;4.396;2023-05-10T16:25:14;5.58;;;5.08;;
23099;SDS011;53791;50.696;4.396;2023-05-10T16:27:45;7.58;;;5.90;;
23099;SDS011;53791;50.696;4.396;2023-05-10T16:30:22;7.10;;;5.42;;